Historique des mesures à Cassis (13260), France
Quotidien Résumé Juin 17, 2017 Unités:  Métrique    US   Métrique/US
« Précédent (Jour)
Suivant (Jour) »
Quotidien Hebdomadaire Mensuel Annuel Période au choix
  Maximum: Minimum: Moyenne:
Température: TemperatureC °C 23.9 °C 28.3 °C
Point de rosée: DewpointC °C 12.3 °C 14.3 °C
Humidité: Humidity % 35 % 40 %
Vitesse du vent: 0 km/h 0 km/h 10 km/h
Rafales: 0 km/h - -
Vent:- - SSW
Pression: PressurehPa hPa 1008.7 hPa -
Précipitations: 0.0 mm    
Historical Graphs
 
 
Mesures pour : Juin 17, 2017
Heure Temperature Point de rosée Pression Vent Vitesse du vent Rafales Humidité Pluie (par heure) Conditions
TemperatureC °C DewpointC °C PressurehPa hPa Calm     Humidity % HourlyPrecipMM mm SoftwareType W/m2
00:10 26.9 °C 12.6 °C 1010.4 hPa NNW 14.5 km/h 15 km/h 41 % 0.0 mm open2300-1.11 W/m2
01:10 26.1 °C 12.5 °C 1009.7 hPa NNW 15.6 km/h 15.6 km/h 43 % 0.0 mm open2300-1.11 W/m2
02:10 24.9 °C 12.8 °C 1009.7 hPa NW 19.6 km/h 20.9 km/h 47 % 0.0 mm open2300-1.11 W/m2
03:10 24.3 °C 12.9 °C 1009.4 hPa North 5.6 km/h 9.3 km/h 49 % 0.0 mm open2300-1.11 W/m2
04:10 23.9 °C 12.6 °C 1009.4 hPa NNW 9.3 km/h 13.2 km/h 49 % 0.0 mm open2300-1.11 W/m2
05:10 24.4 °C 12.3 °C 1009.0 hPa WNW 11.6 km/h 20.3 km/h 47 % 0.0 mm open2300-1.11 W/m2
06:10 24.5 °C 12.4 °C 1009.0 hPa ENE 9.8 km/h 13.2 km/h 47 % 0.0 mm open2300-1.11 W/m2
07:10 24.9 °C 12.8 °C 1009.4 hPa Calm   6.4 km/h 47 % 0.0 mm open2300-1.11 W/m2
08:10 26.7 °C 13.4 °C 1009.7 hPa North 10.3 km/h 13.2 km/h 44 % 0.0 mm open2300-1.11 W/m2
09:10 26.9 °C 13.9 °C 1009.7 hPa NNE 5.1 km/h 6.9 km/h 45 % 0.0 mm open2300-1.11 W/m2
10:11 29.8 °C 15.9 °C 1010.0 hPa South 10.3 km/h 15 km/h 43 % 0.0 mm open2300-1.11 W/m2
11:10 32.6 °C 16.8 °C 1010.0 hPa SE 11.6 km/h 11.6 km/h 39 % 0.0 mm open2300-1.11 W/m2
12:10 34.2 °C 17.3 °C 1010.0 hPa SE 4.7 km/h 9.3 km/h 37 % 0.0 mm open2300-1.11 W/m2
13:10 35.0 °C 17.2 °C 1010.0 hPa Calm   13.2 km/h 35 % 0.0 mm open2300-1.11 W/m2
14:10 35.3 °C 17.8 °C 1010.0 hPa SE 12.2 km/h 12.2 km/h 36 % 0.0 mm open2300-1.11 W/m2
15:10 35.3 °C 17.8 °C 1010.0 hPa SSE 7.6 km/h 10.9 km/h 36 % 0.0 mm open2300-1.11 W/m2
16:10 34.9 °C 17.9 °C 1010.0 hPa SSE 5.1 km/h 5.1 km/h 37 % 0.0 mm open2300-1.11 W/m2
17:10 33.8 °C 17.4 °C 1009.7 hPa SE 8 km/h 9.8 km/h 38 % 0.0 mm open2300-1.11 W/m2
18:10 32.7 °C 16.9 °C 1009.0 hPa SSE 10.3 km/h 10.3 km/h 39 % 0.0 mm open2300-1.11 W/m2
19:10 32.4 °C 15.3 °C 1009.0 hPa NW 20.3 km/h 20.3 km/h 36 % 0.0 mm open2300-1.11 W/m2
20:10 31.9 °C 14.8 °C 1009.0 hPa Calm   3.4 km/h 36 % 0.0 mm open2300-1.11 W/m2
21:10 30.5 °C 14.6 °C 1008.7 hPa NW 29 km/h 29 km/h 38 % 0.0 mm open2300-1.11 W/m2
22:11 28.6 °C 14.8 °C 1009.0 hPa NW 24.3 km/h 24.3 km/h 43 % 0.0 mm open2300-1.11 W/m2
23:10 27.9 °C 14.4 °C 1009.4 hPa NNW 3.4 km/h 3.4 km/h 44 % 0.0 mm open2300-1.11 W/m2
Observations météo à CASSIS
WU-History script by Weather Underground - 1 mb